EW0852 Weather Reports


Display with metric or nautical units.
time (UTC)temp
F
wind
direction
speed
MPH
gust
MPH
rain 1hr
in
rain 24hr
in
rain mn
in
humidity
%
barometer
mb
20210922111645 63 340 1.0 4.0 0.03 0.43 0.03 98 1016.0
20210922103117 64 286 0.0 6.0 0.02 0.42 0.02 98 1015.5
20210922100110 64 315 1.0 4.0 0.00 0.40 0.00 98 1015.1
20210922093101 65 244 1.0 8.0 0.00 0.40 0.00 99 1014.7
20210922090041 67 311 1.0 4.0 0.00 0.40 0.00 99 1014.0
20210922083154 68 296 0.0 4.0 0.00 0.40 0.00 99 1013.5
20210922080044 69 103 0.0 4.0 0.00 0.40 0.00 99 1013.4
20210922074532 71 320 0.0 2.0 0.00 0.42 0.00 99 1013.7
20210922071604 71 311 0.0 0.0 0.00 0.42 0.00 99 1013.9
20210922064601 71 311 0.0 0.0 0.00 0.42 0.00 99 1014.2
20210922061635 71 306 0.0 0.0 0.00 0.42 0.00 99 1014.2
20210922054609 70 38 0.0 0.0 0.00 0.42 0.00 99 1014.4
20210922053016 70 38 0.0 0.0 0.00 0.42 0.00 99 1014.5
20210922051621 70 38 0.0 0.0 0.00 0.42 0.00 99 1014.5
20210922050006 70 38 0.0 0.0 0.00 0.42 0.42 99 1014.4
20210922043052 71 38 0.0 0.0 0.00 0.42 0.42 99 1014.4
20210922040057 71 38 0.0 0.0 0.00 0.42 0.42 99 1014.4
20210922033050 71 38 0.0 0.0 0.00 0.42 0.42 99 1014.3
20210922030118 72 38 0.0 0.0 0.00 0.42 0.42 99 1014.4
20210922023325 73 38 0.0 0.0 0.00 0.42 0.42 99 1014.8
20210922020143 73 38 0.0 0.0 0.00 0.42 0.42 99 1014.9
20210922013058 73 38 0.0 0.0 0.00 0.42 0.42 99 1014.1
20210922010107 73 38 0.0 0.0 0.00 0.42 0.42 99 1013.3
20210922003103 73 38 0.0 0.0 0.00 0.42 0.42 98 1013.4
20210922000106 73 38 0.0 0.0 0.00 0.42 0.42 98 1013.9
20210921233139 73 38 0.0 0.0 0.00 0.42 0.42 98 1014.1
20210921230100 73 38 0.0 1.0 0.01 0.42 0.42 98 1014.2
20210921223056 74 38 0.0 0.0 0.30 0.42 0.42 97 1013.7
20210921220052 75 323 0.0 2.0 0.33 0.41 0.41 97 1013.6
20210921214558 76 323 0.0 2.0 0.21 0.28 0.28 95 1013.5
20210921211600 85 346 0.0 2.0 0.00 0.08 0.08 84 1012.7
20210921204638 87 180 0.0 3.0 0.00 0.08 0.08 78 1012.7
20210921203006 84 175 0.0 0.0 0.00 0.08 0.08 86 1012.9
20210921201611 86 175 0.0 2.0 0.00 0.08 0.08 80 1012.8
20210921200022 84 172 0.0 1.0 0.00 0.08 0.08 84 1013.4
20210921193113 85 173 0.0 1.0 0.00 0.08 0.08 83 1013.7
20210921191506 86 174 0.0 1.0 0.00 0.08 0.08 87 1014.0
20210921190116 82 174 0.0 0.0 0.00 0.08 0.08 92 1014.1
20210921184617 84 173 0.0 1.0 0.00 0.08 0.08 83 1014.2
20210921183004 82 173 0.0 0.0 0.00 0.08 0.08 91 1014.3
20210921181646 84 169 0.0 2.0 0.00 0.08 0.08 86 1014.5
20210921180109 82 169 0.0 2.0 0.00 0.08 0.08 92 1014.7
20210921173117 82 52 0.0 4.0 0.00 0.08 0.08 92 1015.5
20210921170115 79 198 0.0 2.0 0.00 0.08 0.08 94 1016.1
20210921164510 78 202 0.0 1.0 0.00 0.08 0.08 97 1016.2
20210921163201 77 202 0.0 1.0 0.01 0.08 0.08 96 1016.3
20210921161550 77 202 0.0 0.0 0.02 0.08 0.08 97 1016.2
20210921154508 76 202 0.0 0.0 0.06 0.08 0.08 98 1016.3
20210921153121 76 202 0.0 1.0 0.05 0.07 0.07 98 1016.2
20210921151518 75 202 0.0 1.0 0.04 0.06 0.06 98 1016.3
20210921150208 75 202 0.0 2.0 0.02 0.04 0.04 98 1016.4
20210921144553 75 198 0.0 1.0 0.00 0.02 0.02 98 1016.4
20210921141609 75 198 0.0 1.0 0.00 0.02 0.02 99 1016.0
20210921140010 75 198 0.0 0.0 0.00 0.02 0.02 99 1015.8
20210921133126 73 198 0.0 0.0 0.00 0.02 0.02 99 1015.5
20210921131516 73 198 0.0 0.0 0.00 0.02 0.02 99 1015.5
20210921124507 72 198 0.0 0.0 0.00 0.04 0.02 99 1015.1
20210921123108 72 198 0.0 0.0 0.00 0.04 0.02 99 1014.9
20210921121506 72 198 0.0 0.0 0.00 0.04 0.02 99 1014.9
20210921120141 72 198 0.0 0.0 0.00 0.04 0.02 99 1014.6
20210921114510 72 198 0.0 0.0 0.00 0.04 0.02 99 1014.4
20210921113103 72 198 0.0 0.0 0.00 0.04 0.02 99 1014.2